createdAt,value
2022-12-17T00:02:31.578Z,16.43
2022-12-17T00:05:18.903Z,16.53
2022-12-17T00:08:05.749Z,16.50
2022-12-17T00:10:52.832Z,16.50
2022-12-17T00:13:41.185Z,16.39
2022-12-17T00:16:29.449Z,16.47
2022-12-17T00:19:16.559Z,16.46
2022-12-17T00:22:04.139Z,16.42
2022-12-17T00:24:50.949Z,16.37
2022-12-17T00:27:39.210Z,16.45
2022-12-17T00:30:26.317Z,16.43
2022-12-17T00:33:13.551Z,16.31
2022-12-17T00:36:01.191Z,16.41
2022-12-17T00:38:48.344Z,16.38
2022-12-17T00:41:35.149Z,16.17
2022-12-17T00:44:43.297Z,16.09
2022-12-17T00:47:30.056Z,16.10
2022-12-17T00:50:16.836Z,16.04
2022-12-17T00:53:03.897Z,16.04
2022-12-17T00:55:52.136Z,16.07
2022-12-17T00:58:38.866Z,15.99
2022-12-17T01:01:25.905Z,16.07
2022-12-17T01:04:13.355Z,16.07
2022-12-17T01:07:41.148Z,16.12
2022-12-17T01:10:27.946Z,15.99
2022-12-17T01:13:14.662Z,15.89
2022-12-17T01:16:01.644Z,15.89
2022-12-17T01:18:49.887Z,15.85
2022-12-17T01:21:36.693Z,15.74
2022-12-17T01:24:24.275Z,15.72
2022-12-17T01:27:11.108Z,15.75
2022-12-17T01:29:57.972Z,15.71
2022-12-17T01:32:44.437Z,15.69
2022-12-17T01:35:31.416Z,15.66
2022-12-17T01:38:17.839Z,15.61
2022-12-17T01:41:11.097Z,15.66
2022-12-17T01:43:58.550Z,15.64
2022-12-17T01:46:49.219Z,15.64
2022-12-17T01:49:37.447Z,15.58
2022-12-17T01:52:25.992Z,15.61
2022-12-17T01:55:13.424Z,15.62
2022-12-17T01:58:00.365Z,15.58
2022-12-17T02:00:47.551Z,15.56
2022-12-17T02:03:36.745Z,15.56
2022-12-17T02:06:43.719Z,15.55
2022-12-17T02:09:42.566Z,15.51
2022-12-17T02:12:50.336Z,15.54
2022-12-17T02:15:41.756Z,15.49
2022-12-17T02:18:36.618Z,15.47
2022-12-17T02:21:25.926Z,15.42
2022-12-17T02:24:24.467Z,15.46
2022-12-17T02:27:15.157Z,15.48
2022-12-17T02:30:08.937Z,15.42
2022-12-17T02:33:00.160Z,15.39
2022-12-17T02:35:59.413Z,15.40
2022-12-17T02:38:49.463Z,15.33
2022-12-17T02:41:46.635Z,15.30
2022-12-17T02:44:39.026Z,15.47
2022-12-17T02:47:29.166Z,15.36
2022-12-17T02:50:17.773Z,15.43
2022-12-17T02:53:07.302Z,15.37
2022-12-17T02:55:54.898Z,15.44
2022-12-17T02:58:42.369Z,15.37
2022-12-17T03:01:29.390Z,15.33
2022-12-17T03:04:16.010Z,15.43
2022-12-17T03:07:02.985Z,15.33
2022-12-17T03:09:49.856Z,15.29
2022-12-17T03:12:37.502Z,15.37
2022-12-17T03:15:24.426Z,15.35
2022-12-17T03:18:13.287Z,15.20
2022-12-17T03:21:00.166Z,15.19
2022-12-17T03:23:47.098Z,15.16
2022-12-17T03:26:33.988Z,15.21
2022-12-17T03:29:21.328Z,15.11
2022-12-17T03:32:08.139Z,15.13
2022-12-17T03:34:54.949Z,15.21
2022-12-17T03:37:41.803Z,15.13
2022-12-17T03:40:29.415Z,15.09
2022-12-17T03:43:16.146Z,15.11
2022-12-17T03:46:11.037Z,15.03
2022-12-17T03:48:58.297Z,15.01
2022-12-17T03:51:46.656Z,15.00
2022-12-17T03:54:33.507Z,14.98
2022-12-17T03:57:20.658Z,15.07
2022-12-17T04:00:07.536Z,15.02
2022-12-17T04:03:00.922Z,15.03
2022-12-17T04:05:48.117Z,14.96
2022-12-17T04:08:34.895Z,15.00
2022-12-17T04:11:21.757Z,14.94
2022-12-17T04:14:08.677Z,14.93
2022-12-17T04:16:55.375Z,14.92
2022-12-17T04:19:42.837Z,14.92
2022-12-17T04:22:29.603Z,14.91
2022-12-17T04:25:17.956Z,14.90
2022-12-17T04:28:04.808Z,14.88
2022-12-17T04:30:51.721Z,14.90
2022-12-17T04:33:39.073Z,14.91
2022-12-17T04:36:26.576Z,14.92
2022-12-17T04:39:13.497Z,15.02
2022-12-17T04:42:01.805Z,15.07
2022-12-17T04:44:48.496Z,14.88
2022-12-17T04:47:37.288Z,14.93
2022-12-17T04:50:24.199Z,14.98
2022-12-17T04:53:22.459Z,14.96
2022-12-17T04:56:09.290Z,14.99
2022-12-17T04:58:56.146Z,14.98
2022-12-17T05:01:43.887Z,14.96
2022-12-17T05:04:31.230Z,14.99
2022-12-17T05:07:18.239Z,14.97
2022-12-17T05:10:05.021Z,15.04
2022-12-17T05:12:51.880Z,15.07
2022-12-17T05:15:39.529Z,15.17
2022-12-17T05:18:27.561Z,15.48
2022-12-17T05:21:14.320Z,15.57
2022-12-17T05:24:01.324Z,15.62
2022-12-17T05:26:49.748Z,15.69
2022-12-17T05:29:41.589Z,15.84
2022-12-17T05:32:28.642Z,15.92
2022-12-17T05:35:15.795Z,16.00
2022-12-17T05:38:02.941Z,16.08
2022-12-17T05:40:49.831Z,16.17
2022-12-17T05:43:37.351Z,16.30
2022-12-17T05:46:24.758Z,16.38
2022-12-17T05:49:13.092Z,16.53
2022-12-17T05:51:59.851Z,16.54
2022-12-17T05:54:47.044Z,16.63
2022-12-17T05:57:33.931Z,16.72
2022-12-17T06:00:21.040Z,16.79
2022-12-17T06:03:07.918Z,16.95
2022-12-17T06:05:54.972Z,17.06
2022-12-17T06:08:41.812Z,17.08
2022-12-17T06:11:29.761Z,17.16
2022-12-17T06:14:16.352Z,17.22
2022-12-17T06:17:03.581Z,17.32
2022-12-17T06:19:50.111Z,17.28
2022-12-17T06:22:38.762Z,17.45
2022-12-17T06:25:26.201Z,17.49
2022-12-17T06:28:20.062Z,17.59
2022-12-17T06:31:12.544Z,17.65
2022-12-17T06:33:59.723Z,17.66
2022-12-17T06:36:46.622Z,17.84
2022-12-17T06:39:34.062Z,17.89
2022-12-17T06:42:21.212Z,18.09
2022-12-17T06:45:09.180Z,18.22
2022-12-17T06:47:55.789Z,18.28
2022-12-17T06:50:43.100Z,18.36
2022-12-17T06:53:30.503Z,18.32
2022-12-17T06:56:19.274Z,18.27
2022-12-17T06:59:05.891Z,18.20
2022-12-17T07:01:53.254Z,18.17
2022-12-17T07:04:40.750Z,18.03
2022-12-17T07:07:28.729Z,17.95
2022-12-17T07:10:15.521Z,17.87
2022-12-17T07:13:02.911Z,17.80
2022-12-17T07:15:50.222Z,17.70
2022-12-17T07:18:37.449Z,17.61
2022-12-17T07:21:24.381Z,17.57
2022-12-17T07:24:11.611Z,17.47
2022-12-17T07:26:58.550Z,17.43
2022-12-17T07:29:47.101Z,17.35
2022-12-17T07:32:33.861Z,17.27
2022-12-17T07:35:21.020Z,17.23
2022-12-17T07:38:07.973Z,17.19
2022-12-17T07:40:56.222Z,17.13
2022-12-17T07:43:45.923Z,17.06
2022-12-17T07:46:35.420Z,16.98
2022-12-17T07:49:25.627Z,16.94
2022-12-17T07:52:13.419Z,16.89
2022-12-17T07:55:03.001Z,16.80
2022-12-17T07:57:49.952Z,16.78
2022-12-17T08:00:36.680Z,16.70
2022-12-17T08:03:23.962Z,16.68
2022-12-17T08:06:10.592Z,16.65
2022-12-17T08:08:58.801Z,16.57
2022-12-17T08:11:45.691Z,16.56
2022-12-17T08:14:32.972Z,16.57
2022-12-17T08:17:19.841Z,16.41
2022-12-17T08:20:08.219Z,16.46
2022-12-17T08:22:55.641Z,16.45
2022-12-17T08:25:42.631Z,16.42
2022-12-17T08:31:37.109Z,16.27
2022-12-17T08:34:23.851Z,16.19
2022-12-17T08:37:12.181Z,16.28
2022-12-17T08:39:59.159Z,16.23
2022-12-17T08:43:00.118Z,16.23
2022-12-17T08:45:47.129Z,16.26
2022-12-17T08:48:34.261Z,16.16
2022-12-17T08:51:21.039Z,16.15
2022-12-17T08:54:09.102Z,16.23
2022-12-17T08:56:55.593Z,16.08
2022-12-17T08:59:45.322Z,16.00
2022-12-17T09:02:32.324Z,15.99
2022-12-17T09:05:19.759Z,15.99
2022-12-17T09:08:07.946Z,15.94
2022-12-17T09:10:55.294Z,15.91
2022-12-17T09:13:42.221Z,15.91
2022-12-17T09:16:29.600Z,15.95
2022-12-17T09:19:16.610Z,15.90
2022-12-17T09:22:14.430Z,15.83
2022-12-17T09:25:01.305Z,15.91
2022-12-17T09:27:49.899Z,15.88
2022-12-17T09:30:36.866Z,15.91
2022-12-17T09:33:24.240Z,15.84
2022-12-17T09:36:10.794Z,15.83
2022-12-17T09:38:58.868Z,15.78
2022-12-17T09:42:06.544Z,15.87
2022-12-17T09:45:03.249Z,15.98
2022-12-17T09:48:40.561Z,15.98
2022-12-17T09:51:43.551Z,16.07
2022-12-17T09:54:39.003Z,16.02
2022-12-17T09:57:31.774Z,16.07
2022-12-17T10:00:18.280Z,16.00
2022-12-17T10:03:06.687Z,15.90
2022-12-17T10:05:53.890Z,15.97
2022-12-17T10:08:40.874Z,15.82
2022-12-17T10:11:54.130Z,15.90
2022-12-17T10:14:43.480Z,15.90
2022-12-17T10:17:35.487Z,16.04
2022-12-17T10:20:29.190Z,16.19
2022-12-17T10:23:16.099Z,16.38
2022-12-17T10:26:10.031Z,16.45
2022-12-17T10:28:56.940Z,16.49
2022-12-17T10:31:48.331Z,16.59
2022-12-17T10:34:38.264Z,16.76
2022-12-17T10:37:25.909Z,16.78
2022-12-17T10:40:20.037Z,16.83
2022-12-17T10:43:06.944Z,16.99
2022-12-17T10:45:54.845Z,17.10
2022-12-17T10:48:47.109Z,17.24
2022-12-17T10:51:50.907Z,17.31
2022-12-17T10:54:48.803Z,17.38
2022-12-17T10:57:55.711Z,17.58
2022-12-17T11:00:50.494Z,17.60
2022-12-17T11:03:46.499Z,17.70
2022-12-17T11:06:42.272Z,17.79
2022-12-17T11:09:46.700Z,17.88
2022-12-17T11:12:35.991Z,17.93
2022-12-17T11:15:55.908Z,18.25
2022-12-17T11:18:49.070Z,18.32
2022-12-17T11:21:40.615Z,18.33
2022-12-17T11:24:37.128Z,18.49
2022-12-17T11:27:26.769Z,18.58
2022-12-17T11:30:13.742Z,18.77
2022-12-17T11:33:24.621Z,18.82
2022-12-17T11:36:39.198Z,18.75
2022-12-17T11:39:48.910Z,18.89
2022-12-17T11:42:47.619Z,18.54
2022-12-17T11:46:01.978Z,18.54
2022-12-17T11:48:55.941Z,18.61
2022-12-17T11:51:59.599Z,18.69
2022-12-17T11:55:13.570Z,18.67
2022-12-17T11:58:22.529Z,18.58
2022-12-17T12:02:04.680Z,18.59
2022-12-17T12:05:11.680Z,18.56
2022-12-17T12:08:02.679Z,18.49
2022-12-17T12:11:01.899Z,18.50
2022-12-17T12:14:10.022Z,18.48
2022-12-17T12:17:25.080Z,18.43
2022-12-17T12:20:19.731Z,18.37
2022-12-17T12:23:09.545Z,18.36
2022-12-17T12:26:03.441Z,18.41
2022-12-17T12:28:59.359Z,18.43
2022-12-17T12:32:00.033Z,18.51
2022-12-17T12:35:05.140Z,18.64
2022-12-17T12:37:53.689Z,18.74
2022-12-17T12:40:50.381Z,18.37
2022-12-17T12:43:43.022Z,17.96
2022-12-17T12:46:58.629Z,17.62
2022-12-17T12:50:04.179Z,17.50
2022-12-17T12:52:50.941Z,17.66
2022-12-17T12:55:37.792Z,17.60
2022-12-17T12:58:47.641Z,17.49
2022-12-17T13:01:35.947Z,17.52
2022-12-17T13:04:45.359Z,17.36
2022-12-17T13:07:28.867Z,17.44
2022-12-17T13:09:58.948Z,17.44
2022-12-17T13:12:44.855Z,17.49
2022-12-17T13:15:21.295Z,17.48
2022-12-17T13:18:19.427Z,17.47
2022-12-17T13:21:01.410Z,17.56
2022-12-17T13:23:36.307Z,17.43
2022-12-17T13:26:37.009Z,17.40
2022-12-17T13:29:32.451Z,17.73
2022-12-17T13:32:09.836Z,17.86
2022-12-17T13:34:47.079Z,17.93
2022-12-17T13:37:22.129Z,17.90
2022-12-17T13:40:18.489Z,17.86
2022-12-17T13:42:47.679Z,17.88
2022-12-17T13:45:19.308Z,17.87
2022-12-17T13:47:59.357Z,17.89
2022-12-17T13:50:35.132Z,17.86
2022-12-17T13:53:15.938Z,17.87
2022-12-17T13:55:51.502Z,17.86
2022-12-17T13:58:37.836Z,17.82
2022-12-17T14:01:13.076Z,17.82
2022-12-17T14:04:05.051Z,17.79
2022-12-17T14:06:37.268Z,17.79
2022-12-17T14:09:05.931Z,17.79
2022-12-17T14:11:56.520Z,17.78
2022-12-17T14:14:31.128Z,17.78
2022-12-17T14:17:00.277Z,17.72
2022-12-17T14:19:29.757Z,17.73
2022-12-17T14:21:58.587Z,17.67
2022-12-17T14:24:29.729Z,17.65
2022-12-17T14:27:00.595Z,17.63
2022-12-17T14:29:31.264Z,17.61
2022-12-17T14:32:05.075Z,17.58
2022-12-17T14:34:42.845Z,17.53
2022-12-17T14:37:20.363Z,17.47
2022-12-17T14:39:49.252Z,17.44
2022-12-17T14:42:32.789Z,17.44
2022-12-17T14:45:28.249Z,17.39
2022-12-17T14:48:00.362Z,17.38
2022-12-17T14:50:36.959Z,17.32
2022-12-17T14:53:26.607Z,17.30
2022-12-17T14:55:56.408Z,17.31
2022-12-17T14:58:27.873Z,17.25
2022-12-17T15:01:06.574Z,17.21
2022-12-17T15:03:40.457Z,17.14
2022-12-17T15:06:10.960Z,17.12
2022-12-17T15:08:45.289Z,17.09
2022-12-17T15:11:16.002Z,17.15
2022-12-17T15:13:50.374Z,17.10
2022-12-17T15:16:23.717Z,17.12
2022-12-17T15:18:52.339Z,17.00
2022-12-17T15:21:20.805Z,17.02
2022-12-17T15:23:49.633Z,17.16
2022-12-17T15:26:17.903Z,16.92
2022-12-17T15:28:46.654Z,16.85
2022-12-17T15:31:18.615Z,16.74
2022-12-17T15:33:49.283Z,16.66
2022-12-17T15:36:17.555Z,16.69
2022-12-17T15:38:47.154Z,16.67
2022-12-17T15:41:35.354Z,16.66
2022-12-17T15:44:04.055Z,16.60
2022-12-17T15:46:32.372Z,16.54
2022-12-17T15:49:01.174Z,16.55
2022-12-17T15:51:29.587Z,16.59
2022-12-17T15:53:58.233Z,16.69
2022-12-17T15:56:28.162Z,16.60
2022-12-17T15:58:58.198Z,16.67
2022-12-17T16:01:27.482Z,16.64
2022-12-17T16:04:00.625Z,16.61
2022-12-17T16:06:28.893Z,16.56
2022-12-17T16:09:00.043Z,16.66
2022-12-17T16:11:28.305Z,16.70
2022-12-17T16:13:56.952Z,16.77
2022-12-17T16:16:25.259Z,16.84
2022-12-17T16:18:53.923Z,16.96
2022-12-17T16:21:22.264Z,17.09
2022-12-17T16:23:50.846Z,17.20
2022-12-17T16:26:22.165Z,17.21
2022-12-17T16:28:50.780Z,17.32
2022-12-17T16:31:19.190Z,17.46
2022-12-17T16:33:50.653Z,17.49
2022-12-17T16:36:21.933Z,17.61
2022-12-17T16:38:52.803Z,17.65
2022-12-17T16:41:22.075Z,17.72
2022-12-17T16:43:51.553Z,17.70
2022-12-17T16:46:35.153Z,17.90
2022-12-17T16:49:18.356Z,17.97
2022-12-17T16:51:55.213Z,17.98
2022-12-17T16:54:30.672Z,18.08
2022-12-17T16:57:02.161Z,18.05
2022-12-17T16:59:31.043Z,18.23
2022-12-17T17:02:00.499Z,18.22
2022-12-17T17:04:29.081Z,18.39
2022-12-17T17:06:58.292Z,18.41
2022-12-17T17:09:26.769Z,18.39
2022-12-17T17:11:57.118Z,18.37
2022-12-17T17:14:26.603Z,18.53
2022-12-17T17:16:54.791Z,18.70
2022-12-17T17:19:23.412Z,18.74
2022-12-17T17:21:54.377Z,18.69
2022-12-17T17:24:25.626Z,18.69
2022-12-17T17:26:54.912Z,18.68
2022-12-17T17:29:23.776Z,18.64
2022-12-17T17:34:41.229Z,18.56
2022-12-17T17:37:09.912Z,18.46
2022-12-17T17:39:38.453Z,18.42
2022-12-17T17:42:06.749Z,18.35
2022-12-17T17:44:35.553Z,18.30
2022-12-17T17:47:04.380Z,18.23
2022-12-17T17:49:32.972Z,18.18
2022-12-17T17:52:09.784Z,18.20
2022-12-17T17:54:42.711Z,18.15
2022-12-17T17:57:11.044Z,18.17
2022-12-17T17:59:40.922Z,18.19
2022-12-17T18:02:11.250Z,18.28
2022-12-17T18:04:40.268Z,18.31
2022-12-17T18:07:24.809Z,18.35
2022-12-17T18:09:54.580Z,18.48
2022-12-17T18:12:41.649Z,18.52
2022-12-17T18:15:15.721Z,18.60
2022-12-17T18:17:50.812Z,18.63
2022-12-17T18:20:19.611Z,18.69
2022-12-17T18:22:47.815Z,18.65
2022-12-17T18:25:17.912Z,18.57
